EmailTwitter


Observations de surface / Québec / CYUL (71627)

Régions: Québec | Canada | États-Unis | Europe | France | UK | Ailleurs
Station
Affichage
Infos & localisation pour CYUL (71627) | Aide pour décoder les METARs

Observations prises le 2020-03-29 à 12H00 UTC à MONTREAL INTL A, QB (CYUL)

Etat du ciel: couvert.

Température: 5.0 Celsius

Point de rosée: -3.0 Celsius

Humidité relative: 56%

Facteur vent: 2.

Vents: Nord-est à 17 km/h ou 9 noeuds.

Pression au niveau moyen de la mer: 101.83 kilopascals.

Calage altimétrique: 101.79 kilopascals ou 30.06 pouces de mercure.

Visibilité horizontale: 30.00 milles terrestres ou 48.00 kilomètres.

Hauteur du plafond: 1067 mètres ( 3500 pieds ).

Observation METAR:

CYUL 291200Z 03009KT 30SM BKN035 BKN045 OVC070 05/M03 A3006 RMK SC5SC2AS1

SLP183=